Cherokee Falls, South Carolina
Current Conditions -  °F | °C
As of 2:35 AM on Sunday 23 Nov 2014 (Local Time) from KEHO Reporting Station
Overcast Overcast  
Wind Chill:   Ceiling: 4800
Heat Index:   Visibility: 10mi
Dew Point: -3°   Wind: 0mph
Humidity: 53%   Direction: NA
Pressure: 30.27"   Gusts: NA
Location:  35.1147°N, 81.4908°W
Report Text: KEHO 230735Z AUTO 00000KT 10SM SCT028 OVC048 07/M02 A3027 RMK AO2 T00651025
Loading
Personal Weather Stations






























Interactive Weather Map New forecast layout! Learn more

10-Day Weather Forecast

Advertisements
Track Severe Weather on mobile